createdAt,value
2018-08-10T19:30:22.149Z,54.64
2018-08-10T19:32:49.354Z,54.58
2018-08-10T19:35:17.254Z,54.84
2018-08-10T19:37:44.333Z,54.19
2018-08-10T19:40:12.750Z,54.03
2018-08-10T19:42:39.817Z,54.42
2018-08-10T19:45:06.968Z,53.88
2018-08-10T19:47:34.150Z,54.13
2018-08-10T19:50:01.582Z,54.20
2018-08-10T19:52:28.586Z,53.88
2018-08-10T19:54:55.537Z,54.64
2018-08-10T19:57:22.504Z,54.85
2018-08-10T19:59:49.521Z,54.25
2018-08-10T20:02:16.530Z,54.94
2018-08-10T20:04:43.486Z,54.29
2018-08-10T20:07:10.527Z,54.89
2018-08-10T20:09:37.582Z,54.67
2018-08-10T20:12:04.515Z,55.10
2018-08-10T20:14:31.695Z,54.16
2018-08-10T20:16:58.861Z,54.51
2018-08-10T20:19:26.317Z,54.25
2018-08-10T20:21:53.520Z,54.57
2018-08-10T20:24:20.780Z,55.06
2018-08-10T20:26:48.106Z,55.12
2018-08-10T20:29:15.397Z,54.40
2018-08-10T20:31:42.643Z,54.80
2018-08-10T20:34:09.742Z,54.33
2018-08-10T20:36:36.690Z,54.73
2018-08-10T20:39:03.655Z,55.63
2018-08-10T20:41:30.557Z,55.40
2018-08-10T20:43:57.482Z,54.85
2018-08-10T20:46:24.415Z,55.13
2018-08-10T20:48:51.320Z,55.68
2018-08-10T20:51:18.256Z,54.76
2018-08-10T20:53:45.210Z,55.00
2018-08-10T20:56:12.136Z,55.50
2018-08-10T20:58:39.057Z,55.01
2018-08-10T21:01:05.962Z,54.76
2018-08-10T21:03:32.863Z,55.74
2018-08-10T21:05:59.823Z,55.11
2018-08-10T21:08:26.736Z,55.46
2018-08-10T21:10:53.630Z,54.92
2018-08-10T21:13:20.521Z,54.88
2018-08-10T21:15:47.454Z,54.83
2018-08-10T21:18:14.371Z,55.53
2018-08-10T21:20:41.295Z,55.24
2018-08-10T21:23:08.197Z,54.79
2018-08-10T21:25:35.119Z,55.54
2018-08-10T21:28:02.034Z,54.83
2018-08-10T21:30:28.942Z,54.81
2018-08-10T21:32:55.858Z,54.81
2018-08-10T21:35:22.752Z,55.47
2018-08-10T21:37:49.693Z,55.13
2018-08-10T21:40:16.595Z,54.83
2018-08-10T21:42:43.513Z,55.23
2018-08-10T21:45:10.443Z,55.70
2018-08-10T21:47:37.969Z,55.36
2018-08-10T21:50:04.880Z,55.42
2018-08-10T21:52:31.778Z,55.68
2018-08-10T21:54:58.698Z,54.63
2018-08-10T21:57:25.623Z,55.50
2018-08-10T21:59:52.552Z,54.85
2018-08-10T22:02:19.484Z,55.00
2018-08-10T22:04:46.377Z,55.83
2018-08-10T22:07:13.296Z,55.85
2018-08-10T22:09:40.213Z,55.69
2018-08-10T22:12:07.144Z,55.85
2018-08-10T22:14:39.460Z,55.52
2018-08-10T22:17:11.646Z,55.04
2018-08-10T22:19:38.562Z,55.62
2018-08-10T22:22:05.578Z,55.72
2018-08-10T22:24:32.477Z,54.90
2018-08-10T22:26:59.433Z,55.71
2018-08-10T22:29:26.341Z,55.91
2018-08-10T22:31:53.250Z,55.31
2018-08-10T22:34:20.154Z,55.10
2018-08-10T22:36:47.060Z,55.25
2018-08-10T22:39:14.007Z,55.04
2018-08-10T22:41:40.909Z,55.12
2018-08-10T22:44:07.809Z,55.21
2018-08-10T22:46:34.737Z,55.47
2018-08-10T22:49:01.647Z,55.81
2018-08-10T22:51:28.549Z,55.49
2018-08-10T22:53:55.449Z,55.42
2018-08-10T22:56:22.352Z,55.15
2018-08-10T22:58:49.281Z,55.76
2018-08-10T23:01:16.190Z,55.67
2018-08-10T23:03:43.106Z,55.82
2018-08-10T23:06:10.013Z,55.72
2018-08-10T23:08:37.083Z,55.35
2018-08-10T23:11:03.890Z,56.11
2018-08-10T23:13:30.825Z,55.71
2018-08-10T23:15:57.912Z,55.62
2018-08-10T23:18:24.846Z,56.11
2018-08-10T23:20:51.773Z,55.90
2018-08-10T23:23:18.673Z,55.94
2018-08-10T23:25:45.610Z,55.32
2018-08-10T23:28:12.512Z,55.92
2018-08-10T23:30:39.488Z,55.94
2018-08-10T23:33:06.336Z,55.28
2018-08-10T23:35:33.237Z,55.95
2018-08-10T23:38:00.146Z,56.18
2018-08-10T23:40:27.068Z,56.12
2018-08-10T23:42:53.964Z,56.16
2018-08-10T23:45:20.860Z,56.00
2018-08-10T23:47:47.765Z,55.53
2018-08-10T23:50:16.784Z,55.38
2018-08-10T23:52:44.044Z,56.08
2018-08-10T23:55:11.378Z,55.36
2018-08-10T23:57:39.566Z,55.95
